Terminal Aerodrome Forecast
Issued by NWS Newport/Morehead City, NC

Home | Current Version | Previous Version | Text Only | Print | Product List | Glossary Off
Versions: 1 2 3 4 5 6 7 8 9 10 11 12 13 14 15 16 17 18

000
FTUS42 KMHX 280037 AAA
TAFEWN
TAF AMD
KEWN 280037Z 2801/2824 21010KT P6SM BKN250
     FM280500 19010KT P6SM BKN090
     FM280800 20010KT P6SM SCT010 BKN030
     FM280900 20010KT P6SM SCT010 BKN060
     FM281600 21010KT P6SM SCT200=

USA.gov is the U.S. government's official web portal to all federal, state and local government web resources and services.